createdAt,value
2018-12-16T00:00:04.312Z,1002.56
2018-12-16T00:01:04.286Z,1002.53
2018-12-16T00:02:04.259Z,1002.56
2018-12-16T00:03:04.233Z,1002.56
2018-12-16T00:04:04.211Z,1002.57
2018-12-16T00:05:25.179Z,1002.54
2018-12-16T00:06:04.154Z,1002.52
2018-12-16T00:07:04.127Z,1002.53
2018-12-16T00:08:04.101Z,1002.53
2018-12-16T00:09:04.075Z,1002.50
2018-12-16T00:10:04.048Z,1002.44
2018-12-16T00:11:25.021Z,1002.44
2018-12-16T00:12:03.996Z,1002.44
2018-12-16T00:13:03.973Z,1002.48
2018-12-16T00:14:03.944Z,1002.47
2018-12-16T00:15:03.919Z,1002.47
2018-12-16T00:16:03.895Z,1002.46
2018-12-16T00:17:24.869Z,1002.46
2018-12-16T00:18:03.838Z,1002.43
2018-12-16T00:19:03.819Z,1002.41
2018-12-16T00:20:03.788Z,1002.41
2018-12-16T00:21:03.762Z,1002.36
2018-12-16T00:22:03.740Z,1002.37
2018-12-16T00:23:24.706Z,1002.36
2018-12-16T00:24:03.681Z,1002.35
2018-12-16T00:25:03.659Z,1002.31
2018-12-16T00:26:03.628Z,1002.30
2018-12-16T00:27:03.605Z,1002.32
2018-12-16T00:28:03.577Z,1002.34
2018-12-16T00:29:24.554Z,1002.24
2018-12-16T00:30:03.525Z,1002.27
2018-12-16T00:31:03.499Z,1002.28
2018-12-16T00:32:03.504Z,1002.25
2018-12-16T00:33:03.446Z,1002.24
2018-12-16T00:34:03.424Z,1002.24
2018-12-16T00:35:24.427Z,1002.26
2018-12-16T00:36:03.376Z,1002.30
2018-12-16T00:37:03.345Z,1002.31
2018-12-16T00:38:03.315Z,1002.34
2018-12-16T00:39:03.287Z,1002.31
2018-12-16T00:40:03.265Z,1002.34
2018-12-16T00:41:24.275Z,1002.31
2018-12-16T00:42:03.212Z,1002.31
2018-12-16T00:43:03.197Z,1002.28
2018-12-16T00:44:03.160Z,1002.25
2018-12-16T00:45:03.132Z,1002.19
2018-12-16T00:46:03.097Z,1002.20
2018-12-16T00:47:24.100Z,1002.15
2018-12-16T00:48:03.053Z,1002.09
2018-12-16T00:49:03.027Z,1002.08
2018-12-16T00:50:03.000Z,1002.03
2018-12-16T00:51:02.980Z,1002.03
2018-12-16T00:52:02.961Z,1002.04
2018-12-16T00:53:23.928Z,1002.05
2018-12-16T00:54:02.895Z,1002.03
2018-12-16T00:55:02.882Z,1002.03
2018-12-16T00:56:02.843Z,1002.02
2018-12-16T00:57:02.816Z,1002.00
2018-12-16T00:58:02.789Z,1001.96
2018-12-16T00:59:23.763Z,1001.93
2018-12-16T01:00:02.740Z,1001.90
2018-12-16T01:01:02.715Z,1001.88
2018-12-16T01:02:02.685Z,1001.88
2018-12-16T01:03:02.661Z,1001.81
2018-12-16T01:04:02.635Z,1001.83
2018-12-16T01:05:23.604Z,1001.80
2018-12-16T01:06:02.581Z,1001.78
2018-12-16T01:07:02.556Z,1001.76
2018-12-16T01:08:02.528Z,1001.74
2018-12-16T01:09:02.503Z,1001.72
2018-12-16T01:10:02.477Z,1001.68
2018-12-16T01:11:23.450Z,1001.66
2018-12-16T01:12:02.425Z,1001.69
2018-12-16T01:13:02.399Z,1001.68
2018-12-16T01:14:02.372Z,1001.68
2018-12-16T01:15:02.348Z,1001.70
2018-12-16T01:16:02.324Z,1001.70
2018-12-16T01:17:23.294Z,1001.63
2018-12-16T01:18:02.284Z,1001.66
2018-12-16T01:19:02.240Z,1001.62
2018-12-16T01:20:02.215Z,1001.64
2018-12-16T01:21:02.189Z,1001.63
2018-12-16T01:22:02.162Z,1001.63
2018-12-16T01:23:23.134Z,1001.66
2018-12-16T01:24:02.110Z,1001.67
2018-12-16T01:25:02.086Z,1001.65
2018-12-16T01:26:02.059Z,1001.64
2018-12-16T01:27:02.032Z,1001.60
2018-12-16T01:28:02.006Z,1001.64
2018-12-16T01:29:22.980Z,1001.65
2018-12-16T01:30:01.954Z,1001.58
2018-12-16T01:31:01.928Z,1001.62
2018-12-16T01:32:01.913Z,1001.59
2018-12-16T01:33:01.877Z,1001.58
2018-12-16T01:34:01.850Z,1001.58
2018-12-16T01:35:22.825Z,1001.57
2018-12-16T01:36:01.798Z,1001.56
2018-12-16T01:37:01.775Z,1001.53
2018-12-16T01:38:01.737Z,1001.49
2018-12-16T01:39:01.720Z,1001.53
2018-12-16T01:40:01.695Z,1001.48
2018-12-16T01:41:22.707Z,1001.48
2018-12-16T01:42:01.643Z,1001.45
2018-12-16T01:43:01.618Z,1001.51
2018-12-16T01:44:01.598Z,1001.53
2018-12-16T01:45:01.570Z,1001.52
2018-12-16T01:46:01.537Z,1001.59
2018-12-16T01:47:22.517Z,1001.54
2018-12-16T01:48:01.484Z,1001.54
2018-12-16T01:49:01.459Z,1001.53
2018-12-16T01:50:01.434Z,1001.49
2018-12-16T01:51:01.412Z,1001.54
2018-12-16T01:52:01.385Z,1001.53
2018-12-16T01:53:22.354Z,1001.59
2018-12-16T01:54:01.329Z,1001.57
2018-12-16T01:55:01.303Z,1001.58
2018-12-16T01:56:01.277Z,1001.58
2018-12-16T01:57:01.249Z,1001.56
2018-12-16T01:58:01.224Z,1001.58
2018-12-16T01:59:22.196Z,1001.54
2018-12-16T02:00:01.175Z,1001.53
2018-12-16T02:01:01.147Z,1001.52
2018-12-16T02:02:01.120Z,1001.48
2018-12-16T02:03:01.096Z,1001.42
2018-12-16T02:04:01.071Z,1001.48
2018-12-16T02:05:22.046Z,1001.45
2018-12-16T02:06:01.017Z,1001.41
2018-12-16T02:07:00.991Z,1001.40
2018-12-16T02:08:00.965Z,1001.41
2018-12-16T02:09:00.940Z,1001.40
2018-12-16T02:10:00.913Z,1001.40
2018-12-16T02:11:21.887Z,1001.42
2018-12-16T02:12:00.862Z,1001.39
2018-12-16T02:13:00.837Z,1001.36
2018-12-16T02:14:00.810Z,1001.38
2018-12-16T02:15:00.782Z,1001.39
2018-12-16T02:16:00.755Z,1001.34
2018-12-16T02:17:21.731Z,1001.35
2018-12-16T02:18:00.707Z,1001.35
2018-12-16T02:19:00.680Z,1001.31
2018-12-16T02:20:00.653Z,1001.26
2018-12-16T02:21:00.629Z,1001.29
2018-12-16T02:22:00.601Z,1001.25
2018-12-16T02:23:21.575Z,1001.23
2018-12-16T02:24:00.558Z,1001.22
2018-12-16T02:25:00.524Z,1001.19
2018-12-16T02:26:00.498Z,1001.11
2018-12-16T02:27:00.468Z,1001.09
2018-12-16T02:28:00.445Z,1001.06
2018-12-16T02:29:21.421Z,1001.07
2018-12-16T02:30:00.411Z,1001.05
2018-12-16T02:31:00.371Z,1001.04
2018-12-16T02:32:00.343Z,1000.98
2018-12-16T02:33:00.341Z,1000.98
2018-12-16T02:34:00.290Z,1000.94
2018-12-16T02:35:21.266Z,1000.95
2018-12-16T02:36:00.242Z,1000.95
2018-12-16T02:37:00.212Z,1000.95
2018-12-16T02:38:00.186Z,1000.92
2018-12-16T02:39:00.162Z,1000.91
2018-12-16T02:40:00.138Z,1000.85
2018-12-16T02:41:21.113Z,1000.86
2018-12-16T02:42:00.082Z,1000.85
2018-12-16T02:43:00.058Z,1000.79
2018-12-16T02:44:00.035Z,1000.75
2018-12-16T02:45:00.008Z,1000.74
2018-12-16T02:45:59.981Z,1000.67
2018-12-16T02:47:20.955Z,1000.67
2018-12-16T02:47:59.931Z,1000.64
2018-12-16T02:48:59.907Z,1000.60
2018-12-16T02:49:59.878Z,1000.60
2018-12-16T02:50:59.851Z,1000.49
2018-12-16T02:51:59.828Z,1000.46
2018-12-16T02:53:20.800Z,1000.44
2018-12-16T02:53:59.773Z,1000.39
2018-12-16T02:54:59.750Z,1000.38
2018-12-16T02:55:59.723Z,1000.36
2018-12-16T02:56:59.699Z,1000.34
2018-12-16T02:57:59.672Z,1000.31
2018-12-16T02:59:20.646Z,1000.28
2018-12-16T02:59:59.619Z,1000.26
2018-12-16T03:00:59.594Z,1000.30
2018-12-16T03:01:59.568Z,1000.25
2018-12-16T03:02:59.542Z,1000.31
2018-12-16T03:03:59.516Z,1000.31
2018-12-16T03:05:20.491Z,1000.20
2018-12-16T03:05:59.463Z,1000.19
2018-12-16T03:06:59.460Z,1000.20
2018-12-16T03:07:59.412Z,1000.18
2018-12-16T03:08:59.387Z,1000.15
2018-12-16T03:09:59.374Z,1000.11
2018-12-16T03:11:20.334Z,1000.10
2018-12-16T03:11:59.309Z,1000.08
2018-12-16T03:12:59.293Z,1000.05
2018-12-16T03:13:59.256Z,1000.01
2018-12-16T03:14:59.232Z,999.98
2018-12-16T03:15:59.230Z,999.96
2018-12-16T03:17:20.181Z,999.91
2018-12-16T03:17:59.154Z,999.89
2018-12-16T03:18:59.131Z,999.85
2018-12-16T03:19:59.105Z,999.84
2018-12-16T03:20:59.075Z,999.81
2018-12-16T03:21:59.053Z,999.77
2018-12-16T03:23:20.026Z,999.74
2018-12-16T03:23:58.998Z,999.74
2018-12-16T03:24:58.974Z,999.69
2018-12-16T03:25:58.947Z,999.67
2018-12-16T03:26:58.920Z,999.67
2018-12-16T03:27:58.896Z,999.69
2018-12-16T03:29:19.868Z,999.64
2018-12-16T03:29:58.841Z,999.69
2018-12-16T03:30:58.819Z,999.63
2018-12-16T03:31:58.794Z,999.56
2018-12-16T03:32:58.770Z,999.49
2018-12-16T03:33:58.738Z,999.50
2018-12-16T03:35:19.716Z,999.48
2018-12-16T03:35:58.686Z,999.43
2018-12-16T03:36:58.661Z,999.42
2018-12-16T03:37:58.637Z,999.43
2018-12-16T03:38:58.610Z,999.35
2018-12-16T03:39:58.584Z,999.37
2018-12-16T03:41:19.559Z,999.37
2018-12-16T03:41:58.531Z,999.34
2018-12-16T03:42:58.513Z,999.35
2018-12-16T03:43:58.480Z,999.26
2018-12-16T03:44:58.454Z,999.25
2018-12-16T03:45:58.427Z,999.20
2018-12-16T03:47:19.403Z,999.21
2018-12-16T03:47:58.387Z,999.21
2018-12-16T03:48:58.350Z,999.16
2018-12-16T03:49:58.322Z,999.12
2018-12-16T03:50:58.298Z,999.08
2018-12-16T03:51:58.270Z,999.05
2018-12-16T03:53:20.100Z,999.03
2018-12-16T03:53:58.220Z,999.06
2018-12-16T03:54:58.187Z,999.01
2018-12-16T03:55:58.167Z,999.04
2018-12-16T03:56:58.139Z,998.99
2018-12-16T03:57:58.116Z,999.02
2018-12-16T03:59:19.081Z,998.97
2018-12-16T03:59:58.061Z,998.96
2018-12-16T04:00:58.036Z,998.95
2018-12-16T04:01:58.008Z,998.88
2018-12-16T04:02:57.985Z,998.88
2018-12-16T04:03:57.957Z,998.89
2018-12-16T04:05:18.949Z,998.80
2018-12-16T04:05:57.905Z,998.77
2018-12-16T04:06:57.878Z,998.78
2018-12-16T04:07:57.861Z,998.76
2018-12-16T04:08:57.827Z,998.73
2018-12-16T04:09:57.799Z,998.69
2018-12-16T04:11:18.775Z,998.66
2018-12-16T04:11:57.750Z,998.64
2018-12-16T04:12:57.724Z,998.65
2018-12-16T04:13:57.697Z,998.59
2018-12-16T04:14:57.674Z,998.63
2018-12-16T04:15:57.644Z,998.57
2018-12-16T04:17:18.616Z,998.58
2018-12-16T04:17:57.593Z,998.61
2018-12-16T04:18:57.573Z,998.53
2018-12-16T04:19:57.534Z,998.52
2018-12-16T04:20:57.512Z,998.53
2018-12-16T04:21:57.486Z,998.56
2018-12-16T04:23:18.453Z,998.55
2018-12-16T04:23:57.434Z,998.53
2018-12-16T04:24:57.407Z,998.50
2018-12-16T04:25:57.381Z,998.48
2018-12-16T04:26:57.358Z,998.52
2018-12-16T04:27:57.332Z,998.47
2018-12-16T04:29:18.304Z,998.45
2018-12-16T04:29:57.275Z,998.47
2018-12-16T04:30:57.254Z,998.44
2018-12-16T04:31:57.224Z,998.46
2018-12-16T04:32:57.206Z,998.48
2018-12-16T04:33:57.173Z,998.53
2018-12-16T04:35:18.146Z,998.49
2018-12-16T04:35:57.121Z,998.56
2018-12-16T04:36:57.097Z,998.57
2018-12-16T04:37:57.067Z,998.55
2018-12-16T04:38:57.058Z,998.55
2018-12-16T04:39:57.016Z,998.62
2018-12-16T04:41:17.991Z,998.63
2018-12-16T04:41:56.962Z,998.62
2018-12-16T04:42:56.936Z,998.63
2018-12-16T04:43:56.910Z,998.63
2018-12-16T04:44:56.906Z,998.66
2018-12-16T04:45:56.857Z,998.65
2018-12-16T04:47:17.836Z,998.70
2018-12-16T04:47:56.817Z,998.66
2018-12-16T04:48:56.780Z,998.61
2018-12-16T04:49:56.755Z,998.63
2018-12-16T04:50:56.721Z,998.65
2018-12-16T04:51:56.701Z,998.67
2018-12-16T04:53:17.680Z,998.70
2018-12-16T04:53:56.671Z,998.75
2018-12-16T04:54:56.623Z,998.75
2018-12-16T04:55:56.598Z,998.68
2018-12-16T04:56:56.578Z,998.70
2018-12-16T04:57:56.545Z,998.70
2018-12-16T04:59:17.519Z,998.67
2018-12-16T04:59:56.499Z,998.76
2018-12-16T05:00:56.466Z,998.81
2018-12-16T05:01:56.441Z,998.85
2018-12-16T05:02:56.414Z,998.82
2018-12-16T05:03:56.389Z,998.81
2018-12-16T05:05:17.365Z,998.81
2018-12-16T05:05:56.336Z,998.83
2018-12-16T05:06:56.313Z,998.81
2018-12-16T05:07:56.286Z,998.81
2018-12-16T05:08:56.260Z,998.82
2018-12-16T05:09:56.233Z,998.85
2018-12-16T05:11:17.207Z,998.84
2018-12-16T05:11:56.182Z,998.80
2018-12-16T05:12:56.158Z,998.84
2018-12-16T05:13:56.132Z,998.88
2018-12-16T05:14:56.103Z,998.85
2018-12-16T05:15:56.077Z,998.82
2018-12-16T05:17:17.052Z,998.82
2018-12-16T05:17:56.033Z,998.84
2018-12-16T05:18:56.001Z,998.85
2018-12-16T05:19:55.972Z,998.88
2018-12-16T05:20:55.949Z,998.87
2018-12-16T05:21:55.923Z,998.82
2018-12-16T05:23:16.897Z,998.87
2018-12-16T05:23:55.872Z,998.83
2018-12-16T05:24:55.847Z,998.85
2018-12-16T05:25:55.819Z,998.81
2018-12-16T05:26:55.793Z,998.82
2018-12-16T05:27:55.767Z,998.83
2018-12-16T05:29:16.740Z,998.81
2018-12-16T05:29:55.718Z,998.82
2018-12-16T05:30:55.687Z,998.80
2018-12-16T05:31:55.668Z,998.75
2018-12-16T05:32:55.642Z,998.77
2018-12-16T05:33:55.614Z,998.77
2018-12-16T05:35:16.586Z,998.74
2018-12-16T05:35:55.561Z,998.79
2018-12-16T05:36:55.549Z,998.78
2018-12-16T05:37:55.506Z,998.79
2018-12-16T05:38:55.481Z,998.86
2018-12-16T05:39:55.455Z,998.86
2018-12-16T05:41:16.430Z,998.82
2018-12-16T05:41:55.402Z,998.86
2018-12-16T05:42:55.400Z,998.84
2018-12-16T05:43:55.351Z,998.81
2018-12-16T05:44:55.326Z,998.84
2018-12-16T05:45:55.319Z,998.78
2018-12-16T05:47:16.277Z,998.73
2018-12-16T05:47:55.248Z,998.72
2018-12-16T05:48:55.226Z,998.68
2018-12-16T05:49:55.197Z,998.61
2018-12-16T05:50:55.170Z,998.62
2018-12-16T05:51:55.146Z,998.64
2018-12-16T05:53:16.120Z,998.63
2018-12-16T05:53:55.095Z,998.61
2018-12-16T05:54:55.068Z,998.63
2018-12-16T05:55:55.043Z,998.63
2018-12-16T05:56:55.014Z,998.66
2018-12-16T05:57:54.989Z,998.71
2018-12-16T05:59:15.964Z,998.70
2018-12-16T05:59:54.937Z,998.79
2018-12-16T06:00:54.979Z,998.75
2018-12-16T06:01:54.887Z,998.76
2018-12-16T06:02:54.863Z,998.77
2018-12-16T06:03:54.836Z,998.79
2018-12-16T06:05:15.809Z,998.77
2018-12-16T06:05:54.782Z,998.72
2018-12-16T06:06:54.756Z,998.70
2018-12-16T06:07:54.732Z,998.70
2018-12-16T06:08:54.707Z,998.72
2018-12-16T06:09:54.680Z,998.79
2018-12-16T06:11:15.652Z,998.72
2018-12-16T06:11:54.630Z,998.73
2018-12-16T06:12:54.602Z,998.72
2018-12-16T06:13:54.577Z,998.70
2018-12-16T06:14:54.553Z,998.69
2018-12-16T06:15:54.525Z,998.66
2018-12-16T06:17:15.499Z,998.69
2018-12-16T06:17:54.479Z,998.71
2018-12-16T06:18:54.446Z,998.69
2018-12-16T06:19:54.423Z,998.65
2018-12-16T06:20:54.402Z,998.61
2018-12-16T06:21:54.370Z,998.57
2018-12-16T06:23:15.343Z,998.57
2018-12-16T06:23:55.739Z,998.56
2018-12-16T06:24:54.292Z,998.54
2018-12-16T06:25:54.269Z,998.53
2018-12-16T06:26:54.243Z,998.55
2018-12-16T06:27:54.216Z,998.50
2018-12-16T06:29:15.181Z,998.46
2018-12-16T06:29:54.163Z,998.40
2018-12-16T06:30:54.138Z,998.43
2018-12-16T06:31:55.284Z,998.41
2018-12-16T06:32:54.087Z,998.42
2018-12-16T06:33:54.061Z,998.43
2018-12-16T06:35:15.045Z,998.42
2018-12-16T06:35:54.012Z,998.37
2018-12-16T06:36:53.982Z,998.39
2018-12-16T06:37:53.956Z,998.36
2018-12-16T06:38:53.933Z,998.36
2018-12-16T06:39:53.906Z,998.40
2018-12-16T06:41:14.880Z,998.36
2018-12-16T06:41:55.259Z,998.39
2018-12-16T06:42:53.831Z,998.34
2018-12-16T06:43:53.805Z,998.39
2018-12-16T06:44:53.813Z,998.38
2018-12-16T06:45:53.754Z,998.38
2018-12-16T06:47:14.725Z,998.36
2018-12-16T06:47:53.702Z,998.38
2018-12-16T06:48:53.697Z,998.41
2018-12-16T06:49:53.648Z,998.45
2018-12-16T06:50:53.625Z,998.36
2018-12-16T06:51:53.598Z,998.35
2018-12-16T06:53:14.564Z,998.38
2018-12-16T06:53:53.562Z,998.41
2018-12-16T06:54:53.520Z,998.40
2018-12-16T06:55:53.494Z,998.45
2018-12-16T06:56:53.469Z,998.46
2018-12-16T06:57:53.442Z,998.49
2018-12-16T06:59:14.422Z,998.53
2018-12-16T06:59:53.392Z,998.54
2018-12-16T07:00:53.367Z,998.55
2018-12-16T07:01:53.341Z,998.56
2018-12-16T07:02:53.314Z,998.54
2018-12-16T07:03:53.290Z,998.57
2018-12-16T07:05:14.265Z,998.60
2018-12-16T07:05:53.237Z,998.59
2018-12-16T07:06:53.333Z,998.57
2018-12-16T07:07:53.186Z,998.58
2018-12-16T07:08:53.177Z,998.63
2018-12-16T07:09:53.134Z,998.63
2018-12-16T07:11:14.109Z,998.70
2018-12-16T07:11:53.087Z,998.65
2018-12-16T07:12:53.056Z,998.75
2018-12-16T07:13:53.064Z,998.73
2018-12-16T07:14:52.998Z,998.82
2018-12-16T07:15:52.985Z,998.85
2018-12-16T07:17:13.954Z,998.87
2018-12-16T07:17:52.955Z,998.86
2018-12-16T07:18:52.901Z,998.81
2018-12-16T07:19:52.880Z,998.84
2018-12-16T07:20:52.860Z,998.85
2018-12-16T07:21:52.824Z,998.85
2018-12-16T07:23:13.798Z,998.91
2018-12-16T07:23:52.773Z,998.95
2018-12-16T07:24:52.757Z,998.97
2018-12-16T07:25:52.731Z,999.04
2018-12-16T07:26:52.695Z,998.99
2018-12-16T07:27:52.668Z,999.03
2018-12-16T07:29:13.643Z,999.09
2018-12-16T07:29:52.632Z,999.07
2018-12-16T07:30:52.595Z,999.11
2018-12-16T07:31:52.598Z,999.18
2018-12-16T07:32:52.540Z,999.19
2018-12-16T07:33:52.536Z,999.14
2018-12-16T07:35:13.569Z,999.15
2018-12-16T07:35:52.468Z,999.10
2018-12-16T07:36:52.462Z,999.10
2018-12-16T07:37:52.413Z,999.10
2018-12-16T07:38:52.386Z,999.17
2018-12-16T07:39:52.362Z,999.16
2018-12-16T07:41:13.348Z,999.15
2018-12-16T07:41:52.307Z,999.16
2018-12-16T07:42:52.283Z,999.17
2018-12-16T07:43:52.256Z,999.26
2018-12-16T07:44:52.231Z,999.22
2018-12-16T07:45:52.228Z,999.21
2018-12-16T07:47:13.178Z,999.22
2018-12-16T07:47:52.188Z,999.22
2018-12-16T07:48:52.127Z,999.27
2018-12-16T07:49:52.101Z,999.28
2018-12-16T07:50:52.075Z,999.36
2018-12-16T07:51:52.050Z,999.34
2018-12-16T07:53:13.066Z,999.34
2018-12-16T07:53:51.997Z,999.34
2018-12-16T07:54:52.006Z,999.36
2018-12-16T07:55:51.945Z,999.35
2018-12-16T07:56:51.933Z,999.33
2018-12-16T07:57:51.893Z,999.33
2018-12-16T07:59:12.874Z,999.33
2018-12-16T07:59:51.848Z,999.34
2018-12-16T08:00:51.818Z,999.38
2018-12-16T08:01:51.794Z,999.41
2018-12-16T08:02:51.770Z,999.49
2018-12-16T08:03:51.772Z,999.46
2018-12-16T08:05:12.717Z,999.49
2018-12-16T08:05:51.737Z,999.48
2018-12-16T08:06:51.682Z,999.48
2018-12-16T08:07:51.640Z,999.52
2018-12-16T08:08:51.614Z,999.50
2018-12-16T08:09:51.590Z,999.54
2018-12-16T08:11:12.563Z,999.48
2018-12-16T08:11:51.539Z,999.50
2018-12-16T08:12:51.512Z,999.48
2018-12-16T08:13:51.487Z,999.41
2018-12-16T08:14:51.462Z,999.40
2018-12-16T08:15:51.434Z,999.42
2018-12-16T08:17:12.412Z,999.40
2018-12-16T08:17:51.388Z,999.45
2018-12-16T08:18:51.358Z,999.50
2018-12-16T08:19:51.332Z,999.50
2018-12-16T08:20:51.308Z,999.50
2018-12-16T08:21:51.282Z,999.53
2018-12-16T08:23:12.256Z,999.57
2018-12-16T08:23:51.232Z,999.52
2018-12-16T08:24:51.206Z,999.49
2018-12-16T08:25:51.180Z,999.49
2018-12-16T08:26:51.154Z,999.44
2018-12-16T08:27:51.129Z,999.49
2018-12-16T08:29:12.103Z,999.53
2018-12-16T08:29:51.076Z,999.59
2018-12-16T08:30:51.052Z,999.64
2018-12-16T08:31:51.031Z,999.64
2018-12-16T08:32:51.000Z,999.69
2018-12-16T08:33:50.977Z,999.68
2018-12-16T08:35:11.949Z,999.68
2018-12-16T08:35:50.925Z,999.72
2018-12-16T08:36:50.904Z,999.77
2018-12-16T08:37:50.871Z,999.71
2018-12-16T08:38:50.846Z,999.74
2018-12-16T08:39:50.825Z,999.71
2018-12-16T08:41:11.799Z,999.73
2018-12-16T08:41:50.769Z,999.72
2018-12-16T08:42:50.743Z,999.71
2018-12-16T08:43:50.723Z,999.67
2018-12-16T08:44:50.691Z,999.73
2018-12-16T08:45:50.666Z,999.71
2018-12-16T08:47:11.648Z,999.67
2018-12-16T08:47:50.614Z,999.67
2018-12-16T08:48:50.591Z,999.72
2018-12-16T08:49:50.581Z,999.72
2018-12-16T08:50:50.537Z,999.72
2018-12-16T08:51:50.512Z,999.75
2018-12-16T08:53:11.491Z,999.76
2018-12-16T08:53:50.460Z,999.79
2018-12-16T08:54:50.438Z,999.76
2018-12-16T08:55:50.410Z,999.79
2018-12-16T08:56:50.383Z,999.77
2018-12-16T08:57:50.357Z,999.76
2018-12-16T08:59:11.332Z,999.73
2018-12-16T08:59:50.307Z,999.71
2018-12-16T09:00:50.283Z,999.76
2018-12-16T09:01:50.258Z,999.74
2018-12-16T09:02:50.233Z,999.76
2018-12-16T09:03:50.208Z,999.70
2018-12-16T09:05:11.180Z,999.70
2018-12-16T09:05:50.153Z,999.73
2018-12-16T09:06:50.124Z,999.74
2018-12-16T09:07:50.103Z,999.76
2018-12-16T09:08:50.075Z,999.80
2018-12-16T09:09:50.051Z,999.79
2018-12-16T09:11:11.026Z,999.77
2018-12-16T09:11:49.997Z,999.80
2018-12-16T09:12:49.975Z,999.83
2018-12-16T09:13:49.950Z,999.87
2018-12-16T09:14:49.927Z,999.85
2018-12-16T09:15:49.902Z,999.85
2018-12-16T09:17:10.874Z,999.87
2018-12-16T09:17:49.847Z,999.91
2018-12-16T09:18:49.815Z,999.95
2018-12-16T09:19:49.798Z,999.93
2018-12-16T09:20:49.768Z,999.99
2018-12-16T09:21:49.752Z,999.99
2018-12-16T09:23:10.719Z,999.99
2018-12-16T09:23:49.697Z,1000.00
2018-12-16T09:24:49.681Z,1000.04
2018-12-16T09:25:49.645Z,1000.07
2018-12-16T09:26:49.613Z,1000.11
2018-12-16T09:27:49.595Z,1000.09
2018-12-16T09:29:10.571Z,1000.09
2018-12-16T09:29:49.548Z,1000.11
2018-12-16T09:30:49.522Z,1000.19
2018-12-16T09:31:49.493Z,1000.15
2018-12-16T09:32:49.460Z,1000.17
2018-12-16T09:33:49.441Z,1000.18
2018-12-16T09:35:10.416Z,1000.21
2018-12-16T09:35:49.403Z,1000.21
2018-12-16T09:36:49.367Z,1000.23
2018-12-16T09:37:49.340Z,1000.21
2018-12-16T09:38:49.320Z,1000.22
2018-12-16T09:39:49.289Z,1000.20
2018-12-16T09:41:10.267Z,1000.18
2018-12-16T09:41:49.238Z,1000.19
2018-12-16T09:42:49.215Z,1000.23
2018-12-16T09:43:49.193Z,1000.23
2018-12-16T09:44:49.164Z,1000.24
2018-12-16T09:45:49.522Z,1000.21
2018-12-16T09:47:10.111Z,1000.17
2018-12-16T09:47:49.088Z,1000.18
2018-12-16T09:48:49.062Z,1000.17
2018-12-16T09:49:49.037Z,1000.18
2018-12-16T09:50:49.011Z,1000.19
2018-12-16T09:51:49.708Z,1000.15
2018-12-16T09:53:09.960Z,1000.13
2018-12-16T09:53:48.937Z,1000.13
2018-12-16T09:54:48.909Z,1000.16
2018-12-16T09:55:48.884Z,1000.19
2018-12-16T09:56:48.863Z,1000.14
2018-12-16T09:57:48.834Z,1000.17
2018-12-16T09:59:09.814Z,1000.18
2018-12-16T09:59:48.785Z,1000.20
2018-12-16T10:00:48.758Z,1000.14
2018-12-16T10:01:48.732Z,1000.18
2018-12-16T10:02:48.708Z,1000.17
2018-12-16T10:03:48.682Z,1000.21
2018-12-16T10:05:09.659Z,1000.21
2018-12-16T10:05:48.632Z,1000.17
2018-12-16T10:06:48.607Z,1000.21
2018-12-16T10:07:48.582Z,1000.19
2018-12-16T10:08:48.556Z,1000.17
2018-12-16T10:09:48.532Z,1000.20
2018-12-16T10:11:09.506Z,1000.18
2018-12-16T10:11:48.484Z,1000.16
2018-12-16T10:12:48.449Z,1000.15
2018-12-16T10:13:48.430Z,1000.17
2018-12-16T10:14:48.410Z,1000.08
2018-12-16T10:15:48.405Z,1000.06
2018-12-16T10:17:09.355Z,1000.05
2018-12-16T10:17:48.333Z,1000.03
2018-12-16T10:18:48.324Z,1000.04
2018-12-16T10:19:48.281Z,999.95
2018-12-16T10:20:48.253Z,999.98
2018-12-16T10:21:48.228Z,1000.03
2018-12-16T10:23:09.207Z,999.97
2018-12-16T10:23:48.176Z,999.97
2018-12-16T10:24:51.472Z,999.97
2018-12-16T10:25:48.130Z,999.95
2018-12-16T10:26:48.102Z,999.97
2018-12-16T10:27:48.078Z,999.91
2018-12-16T10:29:09.053Z,999.91
2018-12-16T10:29:48.027Z,999.91
2018-12-16T10:30:48.004Z,999.93
2018-12-16T10:31:47.977Z,999.89
2018-12-16T10:32:47.958Z,999.89
2018-12-16T10:33:47.930Z,999.89
2018-12-16T10:35:08.902Z,999.91
2018-12-16T10:35:47.878Z,999.89
2018-12-16T10:36:47.852Z,999.88
2018-12-16T10:37:47.827Z,999.88
2018-12-16T10:38:47.801Z,999.91
2018-12-16T10:39:47.777Z,999.89
2018-12-16T10:41:08.785Z,999.89
2018-12-16T10:41:47.726Z,999.86
2018-12-16T10:42:47.702Z,999.83
2018-12-16T10:43:47.680Z,999.78
2018-12-16T10:44:47.652Z,999.73
2018-12-16T10:45:47.627Z,999.78
2018-12-16T10:47:08.604Z,999.72
2018-12-16T10:47:47.579Z,999.72
2018-12-16T10:48:47.553Z,999.72
2018-12-16T10:49:47.527Z,999.66
2018-12-16T10:50:47.502Z,999.73
2018-12-16T10:51:47.478Z,999.70
2018-12-16T10:53:08.455Z,999.69
2018-12-16T10:53:47.429Z,999.71
2018-12-16T10:54:47.403Z,999.72
2018-12-16T10:55:47.400Z,999.65
2018-12-16T10:56:47.354Z,999.66
2018-12-16T10:57:47.328Z,999.67
2018-12-16T10:59:08.319Z,999.65
2018-12-16T10:59:47.298Z,999.67
2018-12-16T11:00:47.253Z,999.66
2018-12-16T11:01:47.229Z,999.67
2018-12-16T11:02:47.203Z,999.64
2018-12-16T11:03:47.180Z,999.68
2018-12-16T11:05:08.158Z,999.62
2018-12-16T11:05:47.128Z,999.63
2018-12-16T11:06:47.104Z,999.70
2018-12-16T11:07:47.079Z,999.69
2018-12-16T11:08:47.055Z,999.70
2018-12-16T11:09:47.029Z,999.69
2018-12-16T11:11:08.007Z,999.73
2018-12-16T11:11:46.981Z,999.75
2018-12-16T11:12:46.960Z,999.79
2018-12-16T11:13:46.929Z,999.73
2018-12-16T11:14:46.906Z,999.75
2018-12-16T11:15:46.882Z,999.78
2018-12-16T11:17:07.859Z,999.74
2018-12-16T11:17:46.832Z,999.80
2018-12-16T11:18:46.805Z,999.78
2018-12-16T11:19:46.781Z,999.75
2018-12-16T11:20:46.758Z,999.77
2018-12-16T11:21:46.733Z,999.70
2018-12-16T11:23:07.709Z,999.68
2018-12-16T11:23:53.535Z,999.66
2018-12-16T11:24:46.659Z,999.70
2018-12-16T11:25:46.634Z,999.65
2018-12-16T11:26:46.609Z,999.64
2018-12-16T11:27:46.583Z,999.61
2018-12-16T11:29:07.559Z,999.63
2018-12-16T11:29:46.535Z,999.57
2018-12-16T11:30:46.506Z,999.65
2018-12-16T11:31:46.485Z,999.61
2018-12-16T11:32:46.455Z,999.66
2018-12-16T11:33:46.433Z,999.65
2018-12-16T11:35:07.411Z,999.64
2018-12-16T11:35:46.419Z,999.68
2018-12-16T11:36:46.362Z,999.66
2018-12-16T11:37:46.336Z,999.67
2018-12-16T11:38:46.328Z,999.66
2018-12-16T11:39:46.286Z,999.69
2018-12-16T11:41:07.261Z,999.64
2018-12-16T11:41:46.237Z,999.62
2018-12-16T11:42:46.211Z,999.65
2018-12-16T11:43:46.189Z,999.62
2018-12-16T11:44:46.160Z,999.58
2018-12-16T11:45:46.137Z,999.57
2018-12-16T11:47:07.113Z,999.52
2018-12-16T11:47:46.088Z,999.53
2018-12-16T11:48:46.061Z,999.47
2018-12-16T11:49:46.035Z,999.46
2018-12-16T11:50:46.011Z,999.42
2018-12-16T11:51:45.985Z,999.41
2018-12-16T11:53:06.964Z,999.40
2018-12-16T11:53:45.938Z,999.38
2018-12-16T11:54:45.914Z,999.43
2018-12-16T11:55:45.888Z,999.38
2018-12-16T11:56:45.867Z,999.39
2018-12-16T11:57:45.839Z,999.35
2018-12-16T11:59:06.813Z,999.36
2018-12-16T11:59:45.789Z,999.36
2018-12-16T12:00:45.764Z,999.36
2018-12-16T12:01:45.737Z,999.39
2018-12-16T12:02:45.718Z,999.35
2018-12-16T12:03:45.691Z,999.33
2018-12-16T12:05:06.667Z,999.32
2018-12-16T12:05:45.642Z,999.30
2018-12-16T12:06:45.618Z,999.37
2018-12-16T12:07:45.591Z,999.35
2018-12-16T12:08:45.569Z,999.35
2018-12-16T12:09:45.537Z,999.41
2018-12-16T12:11:06.517Z,999.44
2018-12-16T12:11:45.491Z,999.45
2018-12-16T12:12:45.463Z,999.51
2018-12-16T12:13:45.443Z,999.53
2018-12-16T12:14:45.418Z,999.61
2018-12-16T12:15:45.403Z,999.53
2018-12-16T12:17:06.376Z,999.55
2018-12-16T12:17:45.343Z,999.51
2018-12-16T12:18:45.324Z,999.52
2018-12-16T12:19:45.302Z,999.44